Flight OLY385A

  • Submitted By: Stavros Sarikas
  • Departure Airport: Thessaloniki Macedonia International Airport (LGTS)
  • Arrival Airport: NIKOLA TESLA (LYBE)
  • Aircraft: A320-200 (SX-OAH)
  • Flight Time: 01.10
  • Date Submitted: 18/08/2017
  • Route: FSK UN128 RUGAS N128 RAXAD UL617 RAVAK L617 NEPOS
  • Status: Accepted
Flight Details
Gross Revenue:
(138 load / € 80.00 per unit
€ 11, 040.00
Fuel Cost:
(-2046 fuel used @ 0.19 / unit)
(€ -388.74)

Additional Log Information:

View Log

Aircraft Used in flight is Airbus A320 British Airways G-EUUU
12:26 Boarding
12:26 Beacon Lights ON at 40 Feet
12:26 Brakes are On
12:26 In Air Refuel Suspected
12:26 Navigation Lights ON at 40 Feet
12:30 Engine 2 Started
12:31 Engine 1 Started
12:33 Brakes are Released
12:33 Pushing back
12:33 Flaps 3 Selected at 40ft and 0kts
12:34 Taxi Lights ON at 40 Feet
12:35 Landing Lights ON at 40 AGL
12:35 Strobe Lights ON at 40 Feet
12:38 You Took off @ 141 Knots and Flaps at Position 3 With a heading of 346 Degrees
Departure Weather LGTS 180920Z 26010KT 9999 FEW030 31/17 Q1016 NOSIG
Departure Coordinates 40.5246438040332/ 22.9693007434237
Takeoff Weight=61649KG Fuel Weight=6805KG
12:38 Paused
12:38 Unpaused
12:38 Landing Gear Up @ 150 Knots and 100 Feet
12:38 Taxi Lights OFF at 110 Feet
12:39 Flaps 2 Selected at 1590ft and 156kts
12:40 Flaps 0 Selected at 1790ft and 188kts
12:40 You exceeded maximum bank angle
12:42 Below 10000 feet you are not allowed to go over 250 knots
12:42 Above FL100 you need to switch of the landing lights
12:42 Landing Lights OFF at 10420 AGL
12:51 TOC Reached
13:23 Landing Lights ON at 9810 AGL
13:30 Flaps 1 Selected at 2560ft and 204kts
13:32 Flaps 3 Selected at 2300ft and 183kts
13:32 Landing Gear Down @ 180 Knots and 2250 Feet
13:32 Flaps 4 Selected at 2200ft and 162kts
13:32 Taxi Lights ON at 2180 Feet
13:32 Flaps 5 Selected at 2140ft and 156kts
13:35 You Landed @ 135 Knots with -475 Vertical Speed With a heading of 302 and with 1.12 G Force
Arrival Weather: LYBE 181000Z VRB04KT CAVOK 31/16 Q1019 NOSIG
Arrival Coordinates 44.8134634189382/ 20.3205268938342
Landing Weight=59335KG Fuel Weight=4491KG
13:35 Airplane Bounced
13:35 Paused
13:35 Taxiing to gate
13:35 Landing Lights OFF at 350 AGL
13:35 Strobe Lights OFF at 350 Feet
13:35 Flaps 0 Selected at 350ft and 8kts
13:36 Unpaused
13:36 Brakes are On
Pirep logged with OA Virtual Tracking 1.0.2.3

Route Map